createdAt,value
2018-09-07T03:01:03.898Z,99.99
2018-09-07T03:02:04.441Z,99.99
2018-09-07T03:04:04.342Z,99.99
2018-09-07T03:05:05.848Z,99.99
2018-09-07T03:06:04.889Z,99.99
2018-09-07T03:07:05.781Z,99.99
2018-09-07T03:08:05.236Z,99.99
2018-09-07T03:09:05.376Z,99.99
2018-09-07T03:10:06.305Z,99.99
2018-09-07T03:12:06.746Z,99.99
2018-09-07T03:13:07.039Z,99.99
2018-09-07T03:14:06.323Z,99.99
2018-09-07T03:15:06.483Z,99.99
2018-09-07T03:17:06.904Z,99.99
2018-09-07T03:18:07.913Z,99.99
2018-09-07T03:19:07.205Z,99.99
2018-09-07T03:20:07.609Z,99.99
2018-09-07T03:21:07.445Z,99.99
2018-09-07T03:22:04.939Z,99.99
2018-09-07T03:23:05.119Z,99.99
2018-09-07T03:24:05.306Z,99.99
2018-09-07T03:25:05.399Z,99.99
2018-09-07T03:26:05.642Z,99.99
2018-09-07T03:27:05.802Z,99.99
2018-09-07T03:28:05.910Z,99.99
2018-09-07T03:29:06.100Z,99.99
2018-09-07T03:30:06.251Z,99.99
2018-09-07T03:31:06.393Z,99.99
2018-09-07T03:32:06.606Z,99.99
2018-09-07T03:33:06.723Z,99.99
2018-09-07T03:34:06.926Z,99.99
2018-09-07T03:35:07.207Z,99.99
2018-09-07T03:36:07.223Z,99.99
2018-09-07T03:37:07.515Z,99.99
2018-09-07T03:38:07.615Z,99.99
2018-09-07T03:39:07.743Z,99.99
2018-09-07T03:40:08.122Z,99.99
2018-09-07T03:41:08.240Z,99.99
2018-09-07T03:42:08.267Z,99.99
2018-09-07T03:43:08.524Z,99.99
2018-09-07T03:44:08.878Z,99.99
2018-09-07T03:45:08.885Z,99.99
2018-09-07T03:46:09.080Z,99.99
2018-09-07T03:47:09.205Z,99.99
2018-09-07T03:48:09.327Z,99.99
2018-09-07T03:49:09.548Z,99.99
2018-09-07T03:50:09.657Z,99.99
2018-09-07T03:51:09.853Z,99.99
2018-09-07T03:52:10.107Z,99.99
2018-09-07T03:53:10.143Z,99.99
2018-09-07T03:54:10.404Z,99.99
2018-09-07T03:55:10.490Z,99.99
2018-09-07T03:56:10.732Z,99.99
2018-09-07T03:57:10.957Z,99.99
2018-09-07T03:58:11.057Z,99.99
2018-09-07T03:59:11.259Z,99.99
2018-09-07T04:00:11.324Z,99.99
2018-09-07T04:01:11.744Z,99.99
2018-09-07T04:02:11.800Z,99.99
2018-09-07T04:03:11.912Z,99.99
2018-09-07T04:04:12.129Z,99.99
2018-09-07T04:05:12.351Z,99.99
2018-09-07T04:06:12.561Z,99.99
2018-09-07T04:07:12.676Z,99.99
2018-09-07T04:08:12.938Z,99.99
2018-09-07T04:09:12.958Z,99.99
2018-09-07T04:10:13.314Z,99.99
2018-09-07T04:11:13.501Z,99.99
2018-09-07T04:12:13.598Z,99.99
2018-09-07T04:13:13.740Z,99.99
2018-09-07T04:14:13.894Z,99.99
2018-09-07T04:15:14.208Z,99.99
2018-09-07T04:16:14.274Z,99.99
2018-09-07T04:17:14.405Z,99.99
2018-09-07T04:18:14.585Z,99.99
2018-09-07T04:19:14.792Z,99.99
2018-09-07T04:20:14.899Z,99.99
2018-09-07T04:21:15.006Z,99.99
2018-09-07T04:22:15.508Z,99.99
2018-09-07T04:23:15.586Z,99.99
2018-09-07T04:24:15.607Z,99.99
2018-09-07T04:25:15.846Z,99.99
2018-09-07T04:26:15.944Z,99.99
2018-09-07T04:27:16.131Z,99.99
2018-09-07T04:28:16.261Z,99.99
2018-09-07T04:29:16.500Z,99.99
2018-09-07T04:30:16.570Z,99.99
2018-09-07T04:31:16.872Z,99.99
2018-09-07T04:32:16.838Z,99.99
2018-09-07T04:33:17.178Z,99.99
2018-09-07T04:34:17.235Z,99.99
2018-09-07T04:35:17.427Z,99.99
2018-09-07T04:36:17.581Z,99.99
2018-09-07T04:37:17.742Z,99.99
2018-09-07T04:38:17.960Z,99.99
2018-09-07T04:39:18.095Z,99.99
2018-09-07T04:40:18.230Z,99.99
2018-09-07T04:41:18.494Z,99.99
2018-09-07T04:42:18.576Z,99.99
2018-09-07T04:43:18.727Z,99.99
2018-09-07T04:44:18.905Z,99.99
2018-09-07T04:45:19.174Z,99.99
2018-09-07T04:46:19.165Z,99.99
2018-09-07T04:47:19.473Z,99.99
2018-09-07T04:48:19.644Z,99.99
2018-09-07T04:49:19.767Z,99.99
2018-09-07T04:50:19.902Z,99.99
2018-09-07T04:51:20.117Z,99.99
2018-09-07T04:52:20.388Z,99.99
2018-09-07T04:53:20.545Z,99.99
2018-09-07T04:54:20.753Z,99.99
2018-09-07T04:55:20.779Z,99.99
2018-09-07T04:56:20.876Z,99.99
2018-09-07T04:57:21.125Z,99.99
2018-09-07T04:58:21.772Z,99.99
2018-09-07T04:59:22.232Z,99.99
2018-09-07T05:00:21.796Z,99.99
2018-09-07T05:01:22.064Z,99.99
2018-09-07T05:02:22.241Z,99.99
2018-09-07T05:03:22.267Z,99.99
2018-09-07T05:04:22.457Z,99.99
2018-09-07T05:07:35.770Z,99.99
2018-09-07T05:08:24.419Z,99.99
2018-09-07T05:11:21.083Z,99.99
2018-09-07T05:12:24.772Z,99.99
2018-09-07T05:13:23.112Z,99.99
2018-09-07T05:14:24.912Z,99.99
2018-09-07T05:15:22.312Z,99.99
2018-09-07T05:16:22.828Z,99.99
2018-09-07T05:17:22.629Z,99.99
2018-09-07T05:25:24.568Z,99.99
2018-09-07T05:26:25.208Z,99.99
2018-09-07T05:27:24.726Z,99.99
2018-09-07T05:28:28.281Z,99.99
2018-09-07T05:29:25.259Z,99.99
2018-09-07T05:30:23.102Z,99.99
2018-09-07T05:31:22.966Z,99.99
2018-09-07T05:32:23.074Z,99.99
2018-09-07T05:33:23.347Z,99.99
2018-09-07T05:44:06.199Z,99.99
2018-09-07T05:48:31.393Z,99.99
2018-09-07T05:49:13.368Z,99.99
2018-09-07T05:51:48.479Z,99.99
2018-09-07T05:52:46.899Z,99.99
2018-09-07T05:53:47.658Z,99.99
2018-09-07T05:54:44.865Z,99.99
2018-09-07T05:55:46.853Z,99.99
2018-09-07T05:56:45.319Z,99.99
2018-09-07T05:57:45.356Z,99.99
2018-09-07T05:58:45.475Z,99.99
2018-09-07T05:59:46.037Z,99.99
2018-09-07T06:00:45.979Z,99.99
2018-09-07T06:01:46.036Z,99.99
2018-09-07T06:02:46.171Z,99.99
2018-09-07T06:03:46.446Z,99.99
2018-09-07T06:04:46.578Z,99.99
2018-09-07T06:05:46.725Z,99.99
2018-09-07T06:06:46.956Z,99.99
2018-09-07T06:07:47.091Z,99.99
2018-09-07T06:08:47.274Z,99.99
2018-09-07T06:09:47.579Z,99.99
2018-09-07T06:10:47.554Z,99.99
2018-09-07T06:11:47.678Z,99.99
2018-09-07T06:12:48.146Z,99.99
2018-09-07T06:13:48.084Z,99.99
2018-09-07T06:14:48.385Z,99.99
2018-09-07T06:15:48.956Z,99.99
2018-09-07T06:16:48.867Z,99.99
2018-09-07T06:17:48.751Z,99.99
2018-09-07T06:18:49.278Z,99.99
2018-09-07T06:19:49.081Z,99.99
2018-09-07T06:20:51.726Z,99.99
2018-09-07T06:21:50.126Z,99.99
2018-09-07T06:22:49.684Z,99.99
2018-09-07T06:25:34.589Z,99.99
2018-09-07T06:26:34.206Z,99.99
2018-09-07T06:28:36.989Z,99.99
2018-09-07T06:33:35.764Z,99.99
2018-09-07T06:34:35.465Z,99.99
2018-09-07T06:35:32.556Z,99.99
2018-09-07T06:36:35.088Z,99.99
2018-09-07T06:37:32.901Z,99.99
2018-09-07T06:38:33.064Z,99.99
2018-09-07T06:39:33.414Z,99.99
2018-09-07T06:40:34.170Z,99.99
2018-09-07T06:41:33.552Z,99.99
2018-09-07T06:42:33.799Z,99.99
2018-09-07T06:43:33.893Z,99.99
2018-09-07T06:44:34.784Z,99.99
2018-09-07T06:45:34.189Z,99.99
2018-09-07T06:46:34.396Z,99.99
2018-09-07T06:47:34.600Z,99.99
2018-09-07T06:48:35.750Z,99.99
2018-09-07T06:50:57.065Z,99.99
2018-09-07T06:51:37.174Z,99.99
2018-09-07T06:56:11.222Z,99.99
2018-09-07T06:57:11.930Z,99.99
2018-09-07T06:59:17.646Z,99.99
2018-09-07T07:00:15.160Z,99.99
2018-09-07T07:04:01.819Z,99.99
2018-09-07T07:05:05.741Z,99.99
2018-09-07T07:06:04.280Z,99.99
2018-09-07T07:09:50.265Z,99.99
2018-09-07T07:10:46.340Z,99.99
2018-09-07T07:13:40.172Z,99.99
2018-09-07T07:14:42.708Z,99.99
2018-09-07T07:36:54.107Z,99.99
2018-09-07T07:40:02.837Z,99.15
2018-09-07T07:41:01.604Z,99.11
2018-09-07T07:42:01.850Z,98.14
2018-09-07T07:46:27.040Z,99.35
2018-09-07T07:48:28.093Z,99.35
2018-09-07T07:49:44.358Z,98.77
2018-09-07T07:55:35.736Z,98.91
2018-09-07T08:20:59.612Z,89.64
2018-09-07T08:22:15.028Z,86.65
2018-09-07T08:59:02.568Z,79.02
2018-09-07T08:59:51.312Z,80.99
2018-09-07T09:02:58.506Z,76.78
2018-09-07T10:09:24.028Z,52.28
2018-09-07T10:10:24.017Z,52.97
2018-09-07T10:11:24.763Z,50.12
2018-09-07T10:12:24.236Z,50.70
2018-09-07T10:13:39.434Z,51.87
2018-09-07T10:14:40.909Z,48.29
2018-09-07T10:15:24.739Z,51.82
2018-09-07T10:16:48.128Z,51.04
2018-09-07T10:33:20.920Z,49.07
2018-09-07T10:40:23.414Z,60.82
2018-09-07T10:45:21.734Z,63.08
2018-09-07T10:46:05.722Z,63.37
2018-09-07T10:50:57.709Z,66.53
2018-09-07T11:02:36.953Z,70.22
2018-09-07T11:14:06.886Z,68.68
2018-09-07T11:27:01.264Z,71.73
2018-09-07T12:21:13.239Z,70.70
2018-09-07T12:22:36.083Z,70.51
2018-09-07T13:22:23.229Z,78.02
2018-09-07T13:23:22.316Z,80.00
2018-09-07T13:24:22.617Z,80.48
2018-09-07T13:25:23.919Z,80.77
2018-09-07T13:28:04.733Z,79.28
2018-09-07T13:29:01.637Z,80.15
2018-09-07T13:34:26.925Z,81.50
2018-09-07T13:37:29.752Z,79.58
2018-09-07T13:53:17.951Z,69.19
2018-09-07T14:11:04.392Z,68.23
2018-09-07T14:14:20.612Z,66.33
2018-09-07T14:27:25.556Z,64.11
2018-09-07T14:31:25.895Z,67.00
2018-09-07T15:09:55.076Z,62.31
2018-09-07T15:30:09.089Z,58.76
2018-09-07T15:52:54.729Z,61.16
2018-09-07T15:55:48.304Z,60.77
2018-09-07T15:56:46.790Z,61.41
2018-09-07T16:10:13.750Z,62.93
2018-09-07T16:11:11.837Z,63.21
2018-09-07T16:12:14.526Z,63.41
2018-09-07T16:40:00.329Z,66.62
2018-09-07T16:51:05.567Z,69.12
2018-09-07T16:52:02.768Z,69.09
2018-09-07T16:56:21.681Z,72.42
2018-09-07T16:58:22.860Z,75.40
2018-09-07T16:59:20.749Z,74.88
2018-09-07T17:00:19.795Z,75.65
2018-09-07T17:01:21.196Z,77.29
2018-09-07T17:02:20.600Z,79.50
2018-09-07T17:12:53.328Z,83.54
